sensor_id;sensor_type;location;lat;lon;timestamp;P1;durP1;ratioP1;P2;durP2;ratioP2
84917;SDS011;75182;51.736;5.318;2024-03-07T00:00:33;33.72;;;17.48;;
84917;SDS011;75182;51.736;5.318;2024-03-07T00:10:34;34.20;;;17.07;;
84917;SDS011;75182;51.736;5.318;2024-03-07T00:20:36;34.85;;;17.08;;
84917;SDS011;75182;51.736;5.318;2024-03-07T00:30:36;35.78;;;17.27;;
84917;SDS011;75182;51.736;5.318;2024-03-07T00:40:36;31.77;;;15.65;;
84917;SDS011;75182;51.736;5.318;2024-03-07T00:50:37;32.17;;;16.63;;
84917;SDS011;75182;51.736;5.318;2024-03-07T01:00:37;32.63;;;17.58;;
84917;SDS011;75182;51.736;5.318;2024-03-07T01:10:39;36.38;;;17.55;;
84917;SDS011;75182;51.736;5.318;2024-03-07T01:20:39;32.90;;;17.08;;
84917;SDS011;75182;51.736;5.318;2024-03-07T01:30:39;36.45;;;18.23;;
84917;SDS011;75182;51.736;5.318;2024-03-07T01:40:40;35.67;;;18.48;;
84917;SDS011;75182;51.736;5.318;2024-03-07T01:50:41;32.65;;;17.55;;
84917;SDS011;75182;51.736;5.318;2024-03-07T02:00:43;34.70;;;17.30;;
84917;SDS011;75182;51.736;5.318;2024-03-07T02:10:43;35.72;;;17.77;;
84917;SDS011;75182;51.736;5.318;2024-03-07T02:20:44;34.72;;;16.98;;
84917;SDS011;75182;51.736;5.318;2024-03-07T02:30:46;35.20;;;17.50;;
84917;SDS011;75182;51.736;5.318;2024-03-07T02:40:46;38.17;;;19.00;;
84917;SDS011;75182;51.736;5.318;2024-03-07T02:50:46;31.45;;;15.65;;
84917;SDS011;75182;51.736;5.318;2024-03-07T03:00:47;34.65;;;19.92;;
84917;SDS011;75182;51.736;5.318;2024-03-07T03:10:49;36.20;;;19.13;;
84917;SDS011;75182;51.736;5.318;2024-03-07T03:20:51;32.25;;;17.50;;
84917;SDS011;75182;51.736;5.318;2024-03-07T03:30:52;28.65;;;14.30;;
84917;SDS011;75182;51.736;5.318;2024-03-07T03:40:53;38.30;;;20.33;;
84917;SDS011;75182;51.736;5.318;2024-03-07T03:50:53;34.85;;;18.35;;
84917;SDS011;75182;51.736;5.318;2024-03-07T04:00:54;38.75;;;18.88;;
84917;SDS011;75182;51.736;5.318;2024-03-07T04:10:54;38.15;;;18.25;;
84917;SDS011;75182;51.736;5.318;2024-03-07T04:20:54;37.22;;;18.15;;
84917;SDS011;75182;51.736;5.318;2024-03-07T04:30:55;35.97;;;18.30;;
84917;SDS011;75182;51.736;5.318;2024-03-07T04:40:55;35.80;;;17.73;;
84917;SDS011;75182;51.736;5.318;2024-03-07T04:50:56;39.08;;;20.90;;
84917;SDS011;75182;51.736;5.318;2024-03-07T05:00:58;36.70;;;20.70;;
84917;SDS011;75182;51.736;5.318;2024-03-07T05:10:58;35.15;;;18.85;;
84917;SDS011;75182;51.736;5.318;2024-03-07T05:20:59;36.80;;;18.23;;
84917;SDS011;75182;51.736;5.318;2024-03-07T05:31:19;40.33;;;20.08;;
84917;SDS011;75182;51.736;5.318;2024-03-07T05:41:20;34.40;;;17.38;;
84917;SDS011;75182;51.736;5.318;2024-03-07T05:51:24;36.78;;;19.45;;
84917;SDS011;75182;51.736;5.318;2024-03-07T06:01:24;38.17;;;18.92;;
84917;SDS011;75182;51.736;5.318;2024-03-07T06:11:27;34.70;;;19.52;;
84917;SDS011;75182;51.736;5.318;2024-03-07T06:21:27;41.40;;;18.67;;
84917;SDS011;75182;51.736;5.318;2024-03-07T06:31:28;38.83;;;20.35;;
84917;SDS011;75182;51.736;5.318;2024-03-07T06:41:28;38.97;;;20.52;;
84917;SDS011;75182;51.736;5.318;2024-03-07T06:51:29;27.88;;;13.60;;
84917;SDS011;75182;51.736;5.318;2024-03-07T07:01:30;38.88;;;19.77;;
84917;SDS011;75182;51.736;5.318;2024-03-07T07:11:30;40.85;;;21.60;;
84917;SDS011;75182;51.736;5.318;2024-03-07T07:21:31;35.25;;;18.30;;
84917;SDS011;75182;51.736;5.318;2024-03-07T07:31:31;29.35;;;13.52;;
84917;SDS011;75182;51.736;5.318;2024-03-07T07:41:32;32.45;;;13.35;;
84917;SDS011;75182;51.736;5.318;2024-03-07T07:51:33;33.20;;;17.15;;
84917;SDS011;75182;51.736;5.318;2024-03-07T08:01:33;34.92;;;17.83;;
84917;SDS011;75182;51.736;5.318;2024-03-07T08:11:35;26.73;;;14.13;;
84917;SDS011;75182;51.736;5.318;2024-03-07T08:21:36;33.50;;;18.30;;
84917;SDS011;75182;51.736;5.318;2024-03-07T08:31:37;37.43;;;19.43;;
84917;SDS011;75182;51.736;5.318;2024-03-07T08:41:38;21.23;;;10.32;;
84917;SDS011;75182;51.736;5.318;2024-03-07T08:51:41;23.88;;;12.88;;
84917;SDS011;75182;51.736;5.318;2024-03-07T09:01:41;27.52;;;15.30;;
84917;SDS011;75182;51.736;5.318;2024-03-07T09:11:43;29.23;;;16.80;;
84917;SDS011;75182;51.736;5.318;2024-03-07T09:21:44;24.13;;;13.10;;
84917;SDS011;75182;51.736;5.318;2024-03-07T09:31:46;15.00;;;8.93;;
84917;SDS011;75182;51.736;5.318;2024-03-07T09:41:49;28.05;;;17.02;;
84917;SDS011;75182;51.736;5.318;2024-03-07T09:51:50;20.30;;;10.73;;
84917;SDS011;75182;51.736;5.318;2024-03-07T10:01:54;26.83;;;15.65;;
84917;SDS011;75182;51.736;5.318;2024-03-07T10:11:59;13.90;;;5.93;;
84917;SDS011;75182;51.736;5.318;2024-03-07T10:21:59;21.77;;;12.23;;
84917;SDS011;75182;51.736;5.318;2024-03-07T10:32:10;17.67;;;9.27;;
84917;SDS011;75182;51.736;5.318;2024-03-07T10:42:13;22.85;;;12.85;;
84917;SDS011;75182;51.736;5.318;2024-03-07T10:52:29;24.42;;;13.55;;
84917;SDS011;75182;51.736;5.318;2024-03-07T11:02:51;22.00;;;12.20;;
84917;SDS011;75182;51.736;5.318;2024-03-07T11:12:54;18.88;;;11.40;;
84917;SDS011;75182;51.736;5.318;2024-03-07T11:22:55;10.57;;;7.28;;
84917;SDS011;75182;51.736;5.318;2024-03-07T11:32:56;18.50;;;10.45;;
84917;SDS011;75182;51.736;5.318;2024-03-07T11:42:57;18.15;;;9.82;;
84917;SDS011;75182;51.736;5.318;2024-03-07T11:53:04;23.25;;;13.10;;
84917;SDS011;75182;51.736;5.318;2024-03-07T12:03:07;24.40;;;11.77;;
84917;SDS011;75182;51.736;5.318;2024-03-07T12:13:08;20.20;;;11.60;;
84917;SDS011;75182;51.736;5.318;2024-03-07T12:23:11;22.73;;;13.10;;
84917;SDS011;75182;51.736;5.318;2024-03-07T12:33:12;17.05;;;10.02;;
84917;SDS011;75182;51.736;5.318;2024-03-07T12:43:17;18.42;;;9.63;;
84917;SDS011;75182;51.736;5.318;2024-03-07T12:53:19;17.73;;;9.48;;
84917;SDS011;75182;51.736;5.318;2024-03-07T13:03:22;10.82;;;7.00;;
84917;SDS011;75182;51.736;5.318;2024-03-07T13:13:23;19.13;;;10.45;;
84917;SDS011;75182;51.736;5.318;2024-03-07T13:23:23;17.23;;;10.20;;
84917;SDS011;75182;51.736;5.318;2024-03-07T13:33:27;19.77;;;12.93;;
84917;SDS011;75182;51.736;5.318;2024-03-07T13:43:28;18.92;;;10.88;;
84917;SDS011;75182;51.736;5.318;2024-03-07T13:53:28;16.30;;;9.45;;
84917;SDS011;75182;51.736;5.318;2024-03-07T14:03:51;20.33;;;11.70;;
84917;SDS011;75182;51.736;5.318;2024-03-07T14:24:52;19.02;;;9.57;;
84917;SDS011;75182;51.736;5.318;2024-03-07T14:35:02;18.55;;;11.13;;
84917;SDS011;75182;51.736;5.318;2024-03-07T14:45:08;20.05;;;12.25;;
84917;SDS011;75182;51.736;5.318;2024-03-07T14:55:13;22.02;;;12.30;;
84917;SDS011;75182;51.736;5.318;2024-03-07T15:05:14;19.98;;;12.50;;
84917;SDS011;75182;51.736;5.318;2024-03-07T15:15:16;20.90;;;12.10;;
84917;SDS011;75182;51.736;5.318;2024-03-07T15:25:19;19.50;;;12.38;;
84917;SDS011;75182;51.736;5.318;2024-03-07T15:35:23;19.90;;;11.80;;
84917;SDS011;75182;51.736;5.318;2024-03-07T15:45:24;17.00;;;10.25;;
84917;SDS011;75182;51.736;5.318;2024-03-07T15:55:25;18.27;;;10.30;;
84917;SDS011;75182;51.736;5.318;2024-03-07T16:05:28;21.35;;;13.75;;
84917;SDS011;75182;51.736;5.318;2024-03-07T16:15:33;19.25;;;11.88;;
84917;SDS011;75182;51.736;5.318;2024-03-07T16:25:35;22.13;;;12.60;;
84917;SDS011;75182;51.736;5.318;2024-03-07T16:35:39;14.38;;;9.98;;
84917;SDS011;75182;51.736;5.318;2024-03-07T16:45:39;15.48;;;7.93;;
84917;SDS011;75182;51.736;5.318;2024-03-07T16:55:40;12.20;;;7.38;;
84917;SDS011;75182;51.736;5.318;2024-03-07T17:05:41;18.42;;;11.05;;
84917;SDS011;75182;51.736;5.318;2024-03-07T17:15:42;13.68;;;7.95;;
84917;SDS011;75182;51.736;5.318;2024-03-07T17:25:43;16.73;;;9.15;;
84917;SDS011;75182;51.736;5.318;2024-03-07T17:35:43;15.68;;;9.55;;
84917;SDS011;75182;51.736;5.318;2024-03-07T17:45:44;18.05;;;11.20;;
84917;SDS011;75182;51.736;5.318;2024-03-07T17:55:45;13.63;;;8.77;;
84917;SDS011;75182;51.736;5.318;2024-03-07T18:05:45;14.48;;;7.95;;
84917;SDS011;75182;51.736;5.318;2024-03-07T18:15:53;17.00;;;8.48;;
84917;SDS011;75182;51.736;5.318;2024-03-07T18:25:53;18.73;;;10.90;;
84917;SDS011;75182;51.736;5.318;2024-03-07T18:35:54;19.90;;;9.05;;
84917;SDS011;75182;51.736;5.318;2024-03-07T18:45:56;22.80;;;12.07;;
84917;SDS011;75182;51.736;5.318;2024-03-07T18:55:56;22.35;;;11.25;;
84917;SDS011;75182;51.736;5.318;2024-03-07T19:05:56;25.55;;;12.10;;
84917;SDS011;75182;51.736;5.318;2024-03-07T19:15:57;22.30;;;10.60;;
84917;SDS011;75182;51.736;5.318;2024-03-07T19:25:57;21.43;;;10.93;;
84917;SDS011;75182;51.736;5.318;2024-03-07T19:36:03;25.40;;;11.25;;
84917;SDS011;75182;51.736;5.318;2024-03-07T19:46:05;27.38;;;13.70;;
84917;SDS011;75182;51.736;5.318;2024-03-07T19:56:05;22.45;;;10.07;;
84917;SDS011;75182;51.736;5.318;2024-03-07T20:06:07;29.02;;;12.27;;
84917;SDS011;75182;51.736;5.318;2024-03-07T20:16:09;31.02;;;15.00;;
84917;SDS011;75182;51.736;5.318;2024-03-07T20:26:09;21.80;;;10.05;;
84917;SDS011;75182;51.736;5.318;2024-03-07T20:36:09;29.65;;;13.70;;
84917;SDS011;75182;51.736;5.318;2024-03-07T20:46:10;30.25;;;14.27;;
84917;SDS011;75182;51.736;5.318;2024-03-07T20:56:10;24.73;;;9.88;;
84917;SDS011;75182;51.736;5.318;2024-03-07T21:06:11;30.43;;;13.63;;
84917;SDS011;75182;51.736;5.318;2024-03-07T21:16:12;22.95;;;11.13;;
84917;SDS011;75182;51.736;5.318;2024-03-07T21:26:13;28.85;;;13.88;;
84917;SDS011;75182;51.736;5.318;2024-03-07T21:36:15;22.52;;;9.80;;
84917;SDS011;75182;51.736;5.318;2024-03-07T21:46:16;24.23;;;10.77;;
84917;SDS011;75182;51.736;5.318;2024-03-07T21:56:25;27.17;;;13.68;;
84917;SDS011;75182;51.736;5.318;2024-03-07T22:06:26;23.25;;;11.02;;
84917;SDS011;75182;51.736;5.318;2024-03-07T22:16:27;31.55;;;15.65;;
84917;SDS011;75182;51.736;5.318;2024-03-07T22:26:28;28.98;;;13.75;;
84917;SDS011;75182;51.736;5.318;2024-03-07T22:36:28;22.38;;;10.63;;
84917;SDS011;75182;51.736;5.318;2024-03-07T22:46:31;28.55;;;13.70;;
84917;SDS011;75182;51.736;5.318;2024-03-07T22:56:34;26.60;;;14.18;;
84917;SDS011;75182;51.736;5.318;2024-03-07T23:06:35;28.73;;;13.75;;
84917;SDS011;75182;51.736;5.318;2024-03-07T23:16:36;26.02;;;13.65;;
84917;SDS011;75182;51.736;5.318;2024-03-07T23:26:36;22.42;;;10.13;;
84917;SDS011;75182;51.736;5.318;2024-03-07T23:36:38;24.58;;;13.10;;
84917;SDS011;75182;51.736;5.318;2024-03-07T23:46:38;22.52;;;11.68;;
84917;SDS011;75182;51.736;5.318;2024-03-07T23:56:38;22.80;;;11.40;;
